Aérodrome :
LOGIN :

S'inscrire | Disclaimer

   EN    FR    IT 

 










Légende :    VFR   VFR Marginal   IFR   IFR Intensif   IFR Très Intensif
Visi : 
Plafond : 
>= 8 km
>= 3000ft
5 à 8 km
1000 à 3000 ft
1500m à 5 km
500 à 1000 ft
800 à 1500m
200 à 500 ft
< 800m
< 200 ft
Symboles :   Orages  Brouillard  Fortes neiges  Fortes précipitations  Vent > 20 kt
SIGMETs :   Divers  Orages  Givrage  Turbulence  Onde Orograph.  Cendres Volcan.







- Altitude de l'aérodrome : 183 ft
- Code IATA : HAJ


EDDV - Hanover/Langenhagen Int.

DERNIER METAR :
  • 281150Z 26008KT 9999 -RA FEW036 BKN040 10/03 Q1013 NOSIG

METARs EXPIRÉS :
  • 281120Z 27009KT 9999 FEW036 BKN040 09/02 Q1013 NOSIG
  • 281050Z 25006KT 200V290 9999 FEW036 BKN040 BKN090 10/01 Q1013 NOSIG
  • 281020Z 25007KT 210V290 9999 FEW035 BKN039 10/01 Q1013 NOSIG
  • 280950Z 27007KT 230V300 9999 FEW030 BKN036 10/01 Q1013 NOSIG
  • 280920Z 27008KT 220V300 9999 FEW030 BKN036 09/02 Q1013 NOSIG

TAF TAF EDDV
Valide du 28 à 12h jusqu'au 29 à 12h UTC


281100Z 2812/2912 25009KT 9999 SCT040
BECMG 2817/2820 27004KT
BECMG 2906/2908 29009KT
Pas de NOTAMs connus pour ce terrain.



MET'MAP, la Météo Aéronautique d'un coup d'oeil ! - Copyright ORBIFLY Décembre 2007 - Disclaimer

ORBIFLY MET'MAP TEAM :

Programmation & Développement : Alexandra Zaïnal
Conception & Développement : Baudouin d'Aumeries
Co-Programmation & Développement : Marc-Olivier Méhu
Soutien technique & logistique : Manuel Goepfert

Contact : metmap@orbifly.com




SOURCES & CREDITS :

   NOAA